createdAt,value
2022-12-25T18:34:40.558Z,5.50
2022-12-25T18:35:38.915Z,6.00
2022-12-25T18:36:38.948Z,5.10
2022-12-25T18:37:40.281Z,5.10
2022-12-25T18:38:38.896Z,6.00
2022-12-25T18:39:38.912Z,6.00
2022-12-25T18:40:39.871Z,4.90
2022-12-25T18:41:42.611Z,5.30
2022-12-25T18:42:38.863Z,5.20
2022-12-25T18:43:53.879Z,5.20
2022-12-25T18:44:38.870Z,5.10
2022-12-25T18:45:38.885Z,4.60
2022-12-25T18:46:40.434Z,5.10
2022-12-25T18:47:38.785Z,4.80
2022-12-25T18:48:39.520Z,4.80
2022-12-25T18:49:38.783Z,5.10
2022-12-25T18:50:38.815Z,5.00
2022-12-25T18:51:38.742Z,4.60
2022-12-25T18:52:49.305Z,4.70
2022-12-25T18:53:38.697Z,4.70
2022-12-25T18:54:38.713Z,4.50
2022-12-25T18:55:38.722Z,5.00
2022-12-25T18:56:41.005Z,5.30
2022-12-25T18:57:38.734Z,4.60
2022-12-25T18:58:38.889Z,4.80
2022-12-25T18:59:38.678Z,5.10
2022-12-25T19:00:39.441Z,5.70
2022-12-25T19:01:38.852Z,5.30
2022-12-25T19:02:38.791Z,4.80
2022-12-25T19:03:38.607Z,5.10
2022-12-25T19:04:38.672Z,5.70
2022-12-25T19:05:38.577Z,5.40
2022-12-25T19:06:38.597Z,6.30
2022-12-25T19:07:38.591Z,6.30
2022-12-25T19:08:40.118Z,6.10
2022-12-25T19:09:38.546Z,6.20
2022-12-25T19:10:38.571Z,7.40
2022-12-25T19:11:45.602Z,6.30
2022-12-25T19:12:38.507Z,6.90
2022-12-25T19:13:38.546Z,5.90
2022-12-25T19:14:47.364Z,6.50
2022-12-25T19:15:38.503Z,6.60
2022-12-25T19:16:38.604Z,6.50
2022-12-25T19:17:38.435Z,5.90
2022-12-25T19:18:38.431Z,6.20
2022-12-25T19:19:38.624Z,6.10
2022-12-25T19:20:39.406Z,6.30
2022-12-25T19:21:38.417Z,5.90
2022-12-25T19:22:38.423Z,6.40
2022-12-25T19:23:38.387Z,6.50
2022-12-25T19:24:38.386Z,6.10
2022-12-25T19:25:38.375Z,6.60
2022-12-25T19:26:38.395Z,7.00
2022-12-25T19:27:38.330Z,6.00
2022-12-25T19:28:38.356Z,6.20
2022-12-25T19:29:38.343Z,5.90
2022-12-25T19:30:39.296Z,6.20
2022-12-25T19:31:38.465Z,6.30
2022-12-25T19:32:38.336Z,5.50
2022-12-25T19:33:38.273Z,5.70
2022-12-25T19:34:38.521Z,6.40
2022-12-25T19:35:38.283Z,5.90
2022-12-25T19:36:38.300Z,6.00
2022-12-25T19:37:38.868Z,5.90
2022-12-25T19:38:38.238Z,5.80
2022-12-25T19:39:39.640Z,6.30
2022-12-25T19:40:38.225Z,6.10
2022-12-25T19:41:38.228Z,5.70
2022-12-25T19:42:39.199Z,6.70
2022-12-25T19:43:38.876Z,5.80
2022-12-25T19:44:39.990Z,6.00
2022-12-25T19:45:38.219Z,5.90
2022-12-25T19:46:38.196Z,6.10
2022-12-25T19:47:38.226Z,5.90
2022-12-25T19:48:38.132Z,6.30
2022-12-25T19:49:39.884Z,5.70
2022-12-25T19:50:39.819Z,6.40
2022-12-25T19:51:38.809Z,5.80
2022-12-25T19:52:40.484Z,5.60
2022-12-25T19:53:40.922Z,5.50
2022-12-25T19:54:38.049Z,5.70
2022-12-25T19:55:41.001Z,6.20
2022-12-25T19:56:38.019Z,6.90
2022-12-25T19:57:38.056Z,5.70
2022-12-25T19:58:38.073Z,5.60
2022-12-25T19:59:44.382Z,5.70
2022-12-25T20:00:37.987Z,5.80
2022-12-25T20:01:38.081Z,5.70
2022-12-25T20:02:39.113Z,5.60
2022-12-25T20:03:45.586Z,5.50
2022-12-25T20:04:38.008Z,5.70
2022-12-25T20:05:37.938Z,5.10
2022-12-25T20:06:37.959Z,5.10
2022-12-25T20:07:38.542Z,5.40
2022-12-25T20:08:37.899Z,5.70
2022-12-25T20:09:37.893Z,5.80
2022-12-25T20:10:37.910Z,5.00
2022-12-25T20:11:37.867Z,5.00
2022-12-25T20:12:37.882Z,5.20
2022-12-25T20:13:37.785Z,5.30
2022-12-25T20:14:37.860Z,5.30
2022-12-25T20:15:37.857Z,5.30
2022-12-25T20:16:37.947Z,4.90
2022-12-25T20:17:37.783Z,5.00
2022-12-25T20:18:38.382Z,5.40
2022-12-25T20:19:37.738Z,4.70
2022-12-25T20:20:37.754Z,4.90
2022-12-25T20:21:39.941Z,4.80
2022-12-25T20:22:37.814Z,4.90
2022-12-25T20:23:37.708Z,4.40
2022-12-25T20:24:37.755Z,4.70
2022-12-25T20:25:37.717Z,4.60
2022-12-25T20:26:38.444Z,4.50
2022-12-25T20:27:37.674Z,3.70
2022-12-25T20:28:37.734Z,4.10
2022-12-25T20:29:37.652Z,3.80
2022-12-25T20:30:38.379Z,3.50
2022-12-25T20:31:37.728Z,3.90
2022-12-25T20:32:37.686Z,3.80
2022-12-25T20:33:39.129Z,3.50
2022-12-25T20:34:37.893Z,3.50
2022-12-25T20:35:37.618Z,3.40
2022-12-25T20:36:38.367Z,3.50
2022-12-25T20:37:37.535Z,4.40
2022-12-25T20:38:37.556Z,3.60
2022-12-25T20:39:39.593Z,3.70
2022-12-25T20:41:00.435Z,3.80
2022-12-25T20:41:37.538Z,3.50
2022-12-25T20:42:37.555Z,3.60
2022-12-25T20:43:45.021Z,3.70
2022-12-25T20:44:38.048Z,3.60
2022-12-25T20:45:37.949Z,3.80
2022-12-25T20:46:37.651Z,3.60
2022-12-25T20:47:37.441Z,3.60
2022-12-25T20:48:37.463Z,3.80
2022-12-25T20:49:37.403Z,3.50
2022-12-25T20:50:38.147Z,4.00
2022-12-25T20:51:37.439Z,3.30
2022-12-25T20:52:37.469Z,3.00
2022-12-25T20:53:37.910Z,3.40
2022-12-25T20:54:37.944Z,3.30
2022-12-25T20:55:37.385Z,3.30
2022-12-25T20:56:37.386Z,3.00
2022-12-25T20:57:37.341Z,3.40
2022-12-25T20:58:38.141Z,2.90
2022-12-25T20:59:37.987Z,3.10
2022-12-25T21:00:37.315Z,3.30
2022-12-25T21:01:37.470Z,3.10
2022-12-25T21:02:37.546Z,3.30
2022-12-25T21:03:37.284Z,3.40
2022-12-25T21:04:37.284Z,2.90
2022-12-25T21:05:37.313Z,2.90
2022-12-25T21:06:37.280Z,2.80
2022-12-25T21:07:37.221Z,3.00
2022-12-25T21:08:37.354Z,2.90
2022-12-25T21:09:39.003Z,3.40
2022-12-25T21:10:38.073Z,3.00
2022-12-25T21:11:37.168Z,3.20
2022-12-25T21:12:38.068Z,3.40
2022-12-25T21:13:37.141Z,3.20
2022-12-25T21:14:37.134Z,3.00
2022-12-25T21:15:37.139Z,3.10
2022-12-25T21:16:37.977Z,2.70
2022-12-25T21:17:37.132Z,2.80
2022-12-25T21:18:37.844Z,3.00
2022-12-25T21:19:37.921Z,3.10
2022-12-25T21:20:37.125Z,3.00
2022-12-25T21:21:37.123Z,2.80
2022-12-25T21:22:37.103Z,2.60
2022-12-25T21:23:37.044Z,2.70
2022-12-25T21:24:37.052Z,2.90
2022-12-25T21:25:37.041Z,3.00
2022-12-25T21:26:37.056Z,2.90
2022-12-25T21:27:36.998Z,2.80
2022-12-25T21:28:36.999Z,3.30
2022-12-25T21:29:36.968Z,3.00
2022-12-25T21:30:37.058Z,3.20
2022-12-25T21:31:37.937Z,3.50
2022-12-25T21:32:36.979Z,2.80
2022-12-25T21:33:37.882Z,2.80
2022-12-25T21:34:36.927Z,2.80
2022-12-25T21:35:36.912Z,2.80
2022-12-25T21:36:36.932Z,2.90
2022-12-25T21:37:36.916Z,2.70
2022-12-25T21:38:39.394Z,2.90
2022-12-25T21:39:36.861Z,2.70
2022-12-25T21:40:37.408Z,2.80
2022-12-25T21:41:36.859Z,3.30
2022-12-25T21:42:36.903Z,3.00
2022-12-25T21:43:37.547Z,3.00
2022-12-25T21:44:36.844Z,3.00
2022-12-25T21:45:37.518Z,3.40
2022-12-25T21:46:36.866Z,2.90
2022-12-25T21:48:02.096Z,3.10
2022-12-25T21:48:36.812Z,3.20
2022-12-25T21:49:38.705Z,3.30
2022-12-25T21:50:39.379Z,3.10
2022-12-25T21:51:36.978Z,3.70
2022-12-25T21:52:42.028Z,3.00
2022-12-25T21:53:37.384Z,3.80
2022-12-25T21:54:37.451Z,3.30
2022-12-25T21:55:37.590Z,3.50
2022-12-25T21:56:43.632Z,3.60
2022-12-25T21:57:36.708Z,4.40
2022-12-25T21:58:38.240Z,3.80
2022-12-25T21:59:36.669Z,3.50
2022-12-25T22:00:36.633Z,4.10
2022-12-25T22:01:36.769Z,4.40
2022-12-25T22:02:36.700Z,4.60
2022-12-25T22:03:37.414Z,4.80
2022-12-25T22:04:36.585Z,4.60
2022-12-25T22:05:36.553Z,5.40
2022-12-25T22:06:36.552Z,5.60
2022-12-25T22:07:36.559Z,6.20
2022-12-25T22:08:36.582Z,6.90
2022-12-25T22:09:38.432Z,8.10
2022-12-25T22:10:36.510Z,8.30
2022-12-25T22:11:36.544Z,8.00
2022-12-25T22:12:37.428Z,8.20
2022-12-25T22:13:40.804Z,8.30
2022-12-25T22:14:52.657Z,8.80
2022-12-25T22:15:37.457Z,8.90
2022-12-25T22:16:37.150Z,8.60
2022-12-25T22:17:36.487Z,9.00
2022-12-25T22:18:36.441Z,9.40
2022-12-25T22:19:36.442Z,10.10
2022-12-25T22:20:36.440Z,11.10
2022-12-25T22:21:36.465Z,12.50
2022-12-25T22:22:36.407Z,13.60
2022-12-25T22:23:37.087Z,14.20
2022-12-25T22:24:36.318Z,14.00
2022-12-25T22:25:37.507Z,14.20
2022-12-25T22:26:36.322Z,14.30
2022-12-25T22:27:36.332Z,13.90
2022-12-25T22:28:36.316Z,14.20
2022-12-25T22:29:36.298Z,14.90
2022-12-25T22:30:36.766Z,14.60
2022-12-25T22:31:42.602Z,14.10
2022-12-25T22:32:37.049Z,15.50
2022-12-25T22:33:36.492Z,15.60
2022-12-25T22:34:36.249Z,16.30
2022-12-25T22:35:36.276Z,15.30
2022-12-25T22:36:36.935Z,15.80
2022-12-25T22:37:36.224Z,15.80
2022-12-25T22:38:36.177Z,16.90
2022-12-25T22:39:36.210Z,16.80
2022-12-25T22:40:36.312Z,16.50
2022-12-25T22:41:36.208Z,16.80
2022-12-25T22:42:36.384Z,16.30
2022-12-25T22:44:06.800Z,16.50
2022-12-25T22:44:36.166Z,16.70
2022-12-25T22:45:36.195Z,16.30
2022-12-25T22:46:36.146Z,16.00
2022-12-25T22:47:36.162Z,16.20
2022-12-25T22:48:37.257Z,15.70
2022-12-25T22:49:36.794Z,15.90
2022-12-25T22:50:42.899Z,15.60
2022-12-25T22:51:36.775Z,14.60
2022-12-25T22:52:36.027Z,14.30
2022-12-25T22:53:36.938Z,13.60
2022-12-25T22:54:36.037Z,14.20
2022-12-25T22:55:36.046Z,12.80
2022-12-25T22:56:36.502Z,13.00
2022-12-25T22:57:36.940Z,13.00
2022-12-25T22:58:42.795Z,11.80
2022-12-25T22:59:36.015Z,11.90
2022-12-25T23:00:46.260Z,11.90
2022-12-25T23:01:36.152Z,11.70
2022-12-25T23:02:36.193Z,11.20
2022-12-25T23:03:43.274Z,11.40
2022-12-25T23:04:44.179Z,11.60
2022-12-25T23:05:43.270Z,12.40
2022-12-25T23:06:35.885Z,12.80
2022-12-25T23:07:35.873Z,12.30
2022-12-25T23:08:36.808Z,11.70
2022-12-25T23:09:35.873Z,12.80
2022-12-25T23:10:35.903Z,11.70
2022-12-25T23:11:35.844Z,12.30
2022-12-25T23:12:35.824Z,12.40
2022-12-25T23:13:36.579Z,12.00
2022-12-25T23:14:35.838Z,13.50
2022-12-25T23:15:35.902Z,14.20
2022-12-25T23:16:35.825Z,14.10
2022-12-25T23:17:35.757Z,13.80
2022-12-25T23:18:36.521Z,13.80
2022-12-25T23:19:35.758Z,15.90
2022-12-25T23:20:35.762Z,14.80
2022-12-25T23:21:35.705Z,14.00
2022-12-25T23:22:35.693Z,14.30
2022-12-25T23:23:36.384Z,14.40
2022-12-25T23:24:35.657Z,14.50
2022-12-25T23:25:35.720Z,15.60
2022-12-25T23:26:38.238Z,14.30
2022-12-25T23:27:35.690Z,14.90
2022-12-25T23:28:35.674Z,15.40
2022-12-25T23:29:35.641Z,15.30
2022-12-25T23:30:35.636Z,15.80
2022-12-25T23:31:36.497Z,15.70
2022-12-25T23:32:37.341Z,15.70
2022-12-25T23:33:35.613Z,16.00
2022-12-25T23:34:35.547Z,14.80
2022-12-25T23:35:35.623Z,14.90
2022-12-25T23:36:36.267Z,15.20
2022-12-25T23:37:36.252Z,14.80
2022-12-25T23:38:35.566Z,14.40
2022-12-25T23:39:35.503Z,13.30
2022-12-25T23:40:36.193Z,14.10
2022-12-25T23:41:35.550Z,13.40
2022-12-25T23:42:36.079Z,13.90
2022-12-25T23:43:36.951Z,13.50
2022-12-25T23:44:35.443Z,13.10
2022-12-25T23:45:35.538Z,13.90
2022-12-25T23:46:36.254Z,14.10
2022-12-25T23:47:41.979Z,15.10
2022-12-25T23:48:36.336Z,14.70
2022-12-25T23:49:35.393Z,14.70
2022-12-25T23:50:35.376Z,14.10
2022-12-25T23:51:35.435Z,13.50
2022-12-25T23:52:36.543Z,14.30
2022-12-25T23:53:35.436Z,13.50
2022-12-25T23:54:35.342Z,13.80
2022-12-25T23:55:35.332Z,13.00
2022-12-25T23:56:34.311Z,13.80
2022-12-25T23:57:35.354Z,13.80
2022-12-25T23:58:36.052Z,13.80
2022-12-25T23:59:35.320Z,12.70
